Angler Guide Weather for Halifax -
Halifax, Nova Scotia Current Weather Conditions
Enter your "Place, State", US Zip Code or ICAO:  
Forecast Information Radar Information
Halifax, Nova Scotia, Canada  Lat: 44.88N, Lon: 63.52W
ICAO Used: CYAW
Current Conditions
Updated:
Sun & Moon Information:
Temp: N/A
Humidity: N/A
Wind Speed: N/A
Barometer: N/A
Dewpoint: N/A
Heat Index: N/A
Wind Chill: N/A
Civil Twilight: 7:07 AM AST
Moonrise: 1:51 AM AST Moon Phase:
Waning Crescent Moon
Waning Crescent Moon
Moonset: 1:52 PM AST
Sunrise: 7:41 AM AST
Sunset: 4:32 PM AST
Civil Twilight: 5:05 PM AST
Forecast for Halifax, NS:
(Forecast based on TAF for )
0701 PM AST MON NOV 06 2006
  
EVENINGOVERNIGHT
RAIN SHOWERRAIN SHOWER
Rain
Shower
Rain
Shower
TAF based forecast:
Dated: 0701 PM AST MON NOV 06 2006
Evening...Overcast with light rain showers and mist with winds from the south at 7 mph. Possible periods of overcast with /a.
Overnight...Overcast with light rain showers and mist with winds from the south at 7 mph. Possible periods of overcast with /a.
Original Encoded TAF:
Dated: 0701 PM AST MON NOV 06 2006
2006/11/06 23:01
CYAW 062301Z 062302 19006KT 6SM -SHRA BR OVC009 TEMPO 2302 P6SM NSW OVC020=




Powered by Angler Guide.com
Copyright 2007, all rights reserved.